sensor_id;sensor_type;location;lat;lon;timestamp;P1;durP1;ratioP1;P2;durP2;ratioP2
42724;SDS011;28369;44.046;23.014;2023-05-01T00:00:02;5.63;;;5.05;;
42724;SDS011;28369;44.046;23.014;2023-05-01T00:02:29;6.20;;;5.60;;
42724;SDS011;28369;44.046;23.014;2023-05-01T00:04:55;7.20;;;6.45;;
42724;SDS011;28369;44.046;23.014;2023-05-01T00:07:21;6.80;;;6.13;;
42724;SDS011;28369;44.046;23.014;2023-05-01T00:09:46;10.25;;;6.85;;
42724;SDS011;28369;44.046;23.014;2023-05-01T00:12:12;9.25;;;6.43;;
42724;SDS011;28369;44.046;23.014;2023-05-01T00:14:37;6.57;;;5.95;;
42724;SDS011;28369;44.046;23.014;2023-05-01T00:17:03;10.82;;;6.15;;
42724;SDS011;28369;44.046;23.014;2023-05-01T00:19:28;7.78;;;5.60;;
42724;SDS011;28369;44.046;23.014;2023-05-01T00:21:54;6.82;;;5.97;;
42724;SDS011;28369;44.046;23.014;2023-05-01T00:24:19;8.15;;;6.25;;
42724;SDS011;28369;44.046;23.014;2023-05-01T00:26:45;7.53;;;5.90;;
42724;SDS011;28369;44.046;23.014;2023-05-01T00:29:11;7.10;;;6.40;;
42724;SDS011;28369;44.046;23.014;2023-05-01T00:31:37;8.40;;;7.25;;
42724;SDS011;28369;44.046;23.014;2023-05-01T00:34:02;8.13;;;7.18;;
42724;SDS011;28369;44.046;23.014;2023-05-01T00:36:29;7.03;;;6.30;;
42724;SDS011;28369;44.046;23.014;2023-05-01T00:38:55;8.75;;;7.22;;
42724;SDS011;28369;44.046;23.014;2023-05-01T00:41:21;6.32;;;5.80;;
42724;SDS011;28369;44.046;23.014;2023-05-01T00:43:46;6.95;;;6.35;;
42724;SDS011;28369;44.046;23.014;2023-05-01T00:46:12;6.57;;;5.97;;
42724;SDS011;28369;44.046;23.014;2023-05-01T00:48:37;14.95;;;10.75;;
42724;SDS011;28369;44.046;23.014;2023-05-01T00:51:03;10.32;;;7.60;;
42724;SDS011;28369;44.046;23.014;2023-05-01T00:53:34;7.40;;;6.70;;
42724;SDS011;28369;44.046;23.014;2023-05-01T00:56:00;9.70;;;6.60;;
42724;SDS011;28369;44.046;23.014;2023-05-01T00:58:26;8.23;;;6.53;;
42724;SDS011;28369;44.046;23.014;2023-05-01T01:00:52;7.88;;;6.60;;
42724;SDS011;28369;44.046;23.014;2023-05-01T01:03:19;8.52;;;7.70;;
42724;SDS011;28369;44.046;23.014;2023-05-01T01:05:46;7.57;;;6.88;;
42724;SDS011;28369;44.046;23.014;2023-05-01T01:08:32;8.35;;;7.55;;
42724;SDS011;28369;44.046;23.014;2023-05-01T01:13:36;8.77;;;7.85;;
42724;SDS011;28369;44.046;23.014;2023-05-01T01:19:05;9.02;;;7.40;;
42724;SDS011;28369;44.046;23.014;2023-05-01T01:21:45;8.88;;;7.35;;
42724;SDS011;28369;44.046;23.014;2023-05-01T01:24:20;9.45;;;8.43;;
42724;SDS011;28369;44.046;23.014;2023-05-01T01:35:18;8.15;;;7.35;;
42724;SDS011;28369;44.046;23.014;2023-05-01T01:40:35;13.48;;;10.93;;
42724;SDS011;28369;44.046;23.014;2023-05-01T01:43:07;11.90;;;9.10;;
42724;SDS011;28369;44.046;23.014;2023-05-01T01:45:45;9.48;;;8.10;;
42724;SDS011;28369;44.046;23.014;2023-05-01T01:48:13;8.88;;;7.63;;
42724;SDS011;28369;44.046;23.014;2023-05-01T01:50:42;13.13;;;9.52;;
42724;SDS011;28369;44.046;23.014;2023-05-01T01:53:10;9.00;;;8.10;;
42724;SDS011;28369;44.046;23.014;2023-05-01T01:55:40;8.70;;;7.77;;
42724;SDS011;28369;44.046;23.014;2023-05-01T01:58:08;13.45;;;7.40;;
42724;SDS011;28369;44.046;23.014;2023-05-01T02:00:36;10.07;;;7.28;;
42724;SDS011;28369;44.046;23.014;2023-05-01T02:03:05;9.90;;;7.53;;
42724;SDS011;28369;44.046;23.014;2023-05-01T02:05:31;9.15;;;8.35;;
42724;SDS011;28369;44.046;23.014;2023-05-01T02:08:00;10.73;;;8.60;;
42724;SDS011;28369;44.046;23.014;2023-05-01T02:10:27;10.10;;;8.27;;
42724;SDS011;28369;44.046;23.014;2023-05-01T02:12:54;11.27;;;8.77;;
42724;SDS011;28369;44.046;23.014;2023-05-01T02:15:22;9.73;;;8.73;;
42724;SDS011;28369;44.046;23.014;2023-05-01T02:17:50;13.23;;;9.50;;
42724;SDS011;28369;44.046;23.014;2023-05-01T02:20:16;10.18;;;9.00;;
42724;SDS011;28369;44.046;23.014;2023-05-01T02:22:42;10.18;;;8.27;;
42724;SDS011;28369;44.046;23.014;2023-05-01T02:25:11;10.70;;;8.85;;
42724;SDS011;28369;44.046;23.014;2023-05-01T02:27:38;12.38;;;10.48;;
42724;SDS011;28369;44.046;23.014;2023-05-01T02:30:07;14.32;;;9.70;;
42724;SDS011;28369;44.046;23.014;2023-05-01T02:32:33;10.35;;;9.25;;
42724;SDS011;28369;44.046;23.014;2023-05-01T02:34:59;14.20;;;10.18;;
42724;SDS011;28369;44.046;23.014;2023-05-01T02:37:25;15.93;;;9.95;;
42724;SDS011;28369;44.046;23.014;2023-05-01T02:39:52;10.68;;;8.95;;
42724;SDS011;28369;44.046;23.014;2023-05-01T02:42:18;10.68;;;9.35;;
42724;SDS011;28369;44.046;23.014;2023-05-01T02:44:47;11.02;;;8.60;;
42724;SDS011;28369;44.046;23.014;2023-05-01T02:47:19;8.63;;;7.78;;
42724;SDS011;28369;44.046;23.014;2023-05-01T02:49:46;10.05;;;7.43;;
42724;SDS011;28369;44.046;23.014;2023-05-01T02:52:13;9.32;;;8.10;;
42724;SDS011;28369;44.046;23.014;2023-05-01T02:54:40;9.48;;;7.93;;
42724;SDS011;28369;44.046;23.014;2023-05-01T02:57:08;8.15;;;7.32;;
42724;SDS011;28369;44.046;23.014;2023-05-01T02:59:34;8.68;;;7.28;;
42724;SDS011;28369;44.046;23.014;2023-05-01T03:02:00;8.15;;;7.35;;
42724;SDS011;28369;44.046;23.014;2023-05-01T03:04:26;7.95;;;7.15;;
42724;SDS011;28369;44.046;23.014;2023-05-01T03:06:52;8.90;;;8.00;;
42724;SDS011;28369;44.046;23.014;2023-05-01T03:09:23;8.95;;;8.05;;
42724;SDS011;28369;44.046;23.014;2023-05-01T03:11:49;8.88;;;7.93;;
42724;SDS011;28369;44.046;23.014;2023-05-01T03:14:14;12.52;;;8.80;;
42724;SDS011;28369;44.046;23.014;2023-05-01T03:16:40;9.70;;;8.77;;
42724;SDS011;28369;44.046;23.014;2023-05-01T03:19:05;10.65;;;8.35;;
42724;SDS011;28369;44.046;23.014;2023-05-01T03:21:31;12.90;;;8.25;;
42724;SDS011;28369;44.046;23.014;2023-05-01T03:23:57;12.15;;;8.70;;
42724;SDS011;28369;44.046;23.014;2023-05-01T03:26:23;11.73;;;8.57;;
42724;SDS011;28369;44.046;23.014;2023-05-01T03:28:49;10.07;;;8.77;;
42724;SDS011;28369;44.046;23.014;2023-05-01T03:31:14;10.90;;;8.45;;
42724;SDS011;28369;44.046;23.014;2023-05-01T03:33:40;9.93;;;8.50;;
42724;SDS011;28369;44.046;23.014;2023-05-01T03:36:05;11.27;;;8.95;;
42724;SDS011;28369;44.046;23.014;2023-05-01T03:38:31;8.77;;;7.88;;
42724;SDS011;28369;44.046;23.014;2023-05-01T03:40:57;7.82;;;7.00;;
42724;SDS011;28369;44.046;23.014;2023-05-01T03:43:23;6.75;;;6.07;;
42724;SDS011;28369;44.046;23.014;2023-05-01T03:45:49;11.30;;;6.03;;
42724;SDS011;28369;44.046;23.014;2023-05-01T03:48:15;7.93;;;6.57;;
42724;SDS011;28369;44.046;23.014;2023-05-01T03:50:42;10.20;;;6.30;;
42724;SDS011;28369;44.046;23.014;2023-05-01T03:53:07;8.77;;;6.63;;
42724;SDS011;28369;44.046;23.014;2023-05-01T03:55:33;8.60;;;6.65;;
42724;SDS011;28369;44.046;23.014;2023-05-01T03:57:58;8.85;;;7.53;;
42724;SDS011;28369;44.046;23.014;2023-05-01T04:00:24;8.48;;;7.68;;
42724;SDS011;28369;44.046;23.014;2023-05-01T04:02:50;9.45;;;8.55;;
42724;SDS011;28369;44.046;23.014;2023-05-01T04:05:17;12.63;;;7.78;;
42724;SDS011;28369;44.046;23.014;2023-05-01T04:07:42;7.88;;;6.97;;
42724;SDS011;28369;44.046;23.014;2023-05-01T04:10:08;7.50;;;6.80;;
42724;SDS011;28369;44.046;23.014;2023-05-01T04:12:34;11.10;;;6.32;;
42724;SDS011;28369;44.046;23.014;2023-05-01T04:15:00;5.88;;;5.25;;
42724;SDS011;28369;44.046;23.014;2023-05-01T04:17:26;6.85;;;6.10;;
42724;SDS011;28369;44.046;23.014;2023-05-01T04:19:52;6.90;;;5.85;;
42724;SDS011;28369;44.046;23.014;2023-05-01T04:22:20;8.35;;;5.53;;
42724;SDS011;28369;44.046;23.014;2023-05-01T04:24:46;9.35;;;7.53;;
42724;SDS011;28369;44.046;23.014;2023-05-01T04:29:40;5.07;;;4.55;;
42724;SDS011;28369;44.046;23.014;2023-05-01T04:32:06;5.25;;;4.60;;
42724;SDS011;28369;44.046;23.014;2023-05-01T04:34:32;5.68;;;4.07;;
42724;SDS011;28369;44.046;23.014;2023-05-01T04:36:57;7.75;;;4.63;;
42724;SDS011;28369;44.046;23.014;2023-05-01T04:39:23;5.10;;;4.57;;
42724;SDS011;28369;44.046;23.014;2023-05-01T04:41:48;6.25;;;5.15;;
42724;SDS011;28369;44.046;23.014;2023-05-01T04:44:14;9.88;;;6.22;;
42724;SDS011;28369;44.046;23.014;2023-05-01T04:46:39;9.27;;;6.85;;
42724;SDS011;28369;44.046;23.014;2023-05-01T04:49:05;8.20;;;5.32;;
42724;SDS011;28369;44.046;23.014;2023-05-01T04:51:30;7.72;;;4.90;;
42724;SDS011;28369;44.046;23.014;2023-05-01T04:53:56;6.85;;;4.60;;
42724;SDS011;28369;44.046;23.014;2023-05-01T04:56:22;5.40;;;4.45;;
42724;SDS011;28369;44.046;23.014;2023-05-01T04:58:48;4.78;;;4.20;;
42724;SDS011;28369;44.046;23.014;2023-05-01T05:01:14;5.85;;;4.43;;
42724;SDS011;28369;44.046;23.014;2023-05-01T05:03:39;8.27;;;4.75;;
42724;SDS011;28369;44.046;23.014;2023-05-01T05:06:05;6.63;;;4.70;;
42724;SDS011;28369;44.046;23.014;2023-05-01T05:08:30;10.02;;;4.97;;
42724;SDS011;28369;44.046;23.014;2023-05-01T05:10:58;8.00;;;4.38;;
42724;SDS011;28369;44.046;23.014;2023-05-01T05:13:24;7.32;;;4.38;;
42724;SDS011;28369;44.046;23.014;2023-05-01T05:15:50;4.88;;;4.47;;
42724;SDS011;28369;44.046;23.014;2023-05-01T05:18:16;5.28;;;4.30;;
42724;SDS011;28369;44.046;23.014;2023-05-01T05:20:41;5.18;;;4.68;;
42724;SDS011;28369;44.046;23.014;2023-05-01T05:23:06;5.90;;;4.35;;
42724;SDS011;28369;44.046;23.014;2023-05-01T05:25:32;6.45;;;3.95;;
42724;SDS011;28369;44.046;23.014;2023-05-01T05:27:57;6.80;;;5.93;;
42724;SDS011;28369;44.046;23.014;2023-05-01T05:30:24;5.13;;;3.85;;
42724;SDS011;28369;44.046;23.014;2023-05-01T05:32:50;4.85;;;4.22;;
42724;SDS011;28369;44.046;23.014;2023-05-01T05:35:16;7.18;;;4.53;;
42724;SDS011;28369;44.046;23.014;2023-05-01T05:37:41;4.30;;;3.80;;
42724;SDS011;28369;44.046;23.014;2023-05-01T05:40:07;6.53;;;4.28;;
42724;SDS011;28369;44.046;23.014;2023-05-01T05:42:33;4.70;;;4.00;;
42724;SDS011;28369;44.046;23.014;2023-05-01T05:44:59;4.63;;;4.03;;
42724;SDS011;28369;44.046;23.014;2023-05-01T05:47:24;4.65;;;4.03;;
42724;SDS011;28369;44.046;23.014;2023-05-01T05:49:50;7.60;;;4.47;;
42724;SDS011;28369;44.046;23.014;2023-05-01T05:52:15;7.05;;;5.00;;
42724;SDS011;28369;44.046;23.014;2023-05-01T05:54:41;7.70;;;5.63;;
42724;SDS011;28369;44.046;23.014;2023-05-01T05:57:07;9.23;;;4.70;;
42724;SDS011;28369;44.046;23.014;2023-05-01T05:59:33;9.73;;;4.80;;
42724;SDS011;28369;44.046;23.014;2023-05-01T06:01:58;8.52;;;4.40;;
42724;SDS011;28369;44.046;23.014;2023-05-01T06:04:24;8.18;;;4.38;;
42724;SDS011;28369;44.046;23.014;2023-05-01T06:06:50;6.28;;;4.45;;
42724;SDS011;28369;44.046;23.014;2023-05-01T06:09:15;7.38;;;4.15;;
42724;SDS011;28369;44.046;23.014;2023-05-01T06:11:43;7.85;;;4.60;;
42724;SDS011;28369;44.046;23.014;2023-05-01T06:14:09;5.45;;;4.50;;
42724;SDS011;28369;44.046;23.014;2023-05-01T06:16:35;6.95;;;4.38;;
42724;SDS011;28369;44.046;23.014;2023-05-01T06:19:02;6.22;;;4.50;;
42724;SDS011;28369;44.046;23.014;2023-05-01T06:21:27;7.18;;;4.40;;
42724;SDS011;28369;44.046;23.014;2023-05-01T06:23:53;5.40;;;4.15;;
42724;SDS011;28369;44.046;23.014;2023-05-01T06:26:18;5.00;;;4.13;;
42724;SDS011;28369;44.046;23.014;2023-05-01T06:28:45;6.63;;;4.10;;
42724;SDS011;28369;44.046;23.014;2023-05-01T06:31:10;4.88;;;4.30;;
42724;SDS011;28369;44.046;23.014;2023-05-01T06:33:36;6.13;;;4.25;;
42724;SDS011;28369;44.046;23.014;2023-05-01T06:36:01;6.07;;;4.80;;
42724;SDS011;28369;44.046;23.014;2023-05-01T06:38:28;8.38;;;4.50;;
42724;SDS011;28369;44.046;23.014;2023-05-01T06:40:53;8.15;;;4.70;;
42724;SDS011;28369;44.046;23.014;2023-05-01T06:43:19;8.27;;;5.00;;
42724;SDS011;28369;44.046;23.014;2023-05-01T06:45:44;7.78;;;4.47;;
42724;SDS011;28369;44.046;23.014;2023-05-01T06:48:10;7.78;;;4.75;;
42724;SDS011;28369;44.046;23.014;2023-05-01T06:50:35;8.48;;;4.40;;
42724;SDS011;28369;44.046;23.014;2023-05-01T06:53:01;7.10;;;4.82;;
42724;SDS011;28369;44.046;23.014;2023-05-01T06:55:27;8.43;;;4.75;;
42724;SDS011;28369;44.046;23.014;2023-05-01T06:57:55;6.18;;;4.43;;
42724;SDS011;28369;44.046;23.014;2023-05-01T07:00:21;9.88;;;4.80;;
42724;SDS011;28369;44.046;23.014;2023-05-01T07:02:47;6.97;;;5.20;;
42724;SDS011;28369;44.046;23.014;2023-05-01T07:05:13;8.95;;;4.97;;
42724;SDS011;28369;44.046;23.014;2023-05-01T07:07:38;8.90;;;4.75;;
42724;SDS011;28369;44.046;23.014;2023-05-01T07:10:04;7.75;;;4.45;;
42724;SDS011;28369;44.046;23.014;2023-05-01T07:12:30;6.82;;;4.90;;
42724;SDS011;28369;44.046;23.014;2023-05-01T07:14:55;6.00;;;4.93;;
42724;SDS011;28369;44.046;23.014;2023-05-01T07:17:21;6.30;;;4.75;;
42724;SDS011;28369;44.046;23.014;2023-05-01T07:19:47;7.57;;;4.95;;
42724;SDS011;28369;44.046;23.014;2023-05-01T07:22:12;10.93;;;5.38;;
42724;SDS011;28369;44.046;23.014;2023-05-01T07:24:38;8.45;;;5.20;;
42724;SDS011;28369;44.046;23.014;2023-05-01T07:27:03;8.13;;;5.10;;
42724;SDS011;28369;44.046;23.014;2023-05-01T07:29:29;9.73;;;4.78;;
42724;SDS011;28369;44.046;23.014;2023-05-01T07:31:54;5.88;;;4.80;;
42724;SDS011;28369;44.046;23.014;2023-05-01T07:34:20;6.43;;;4.88;;
42724;SDS011;28369;44.046;23.014;2023-05-01T07:36:45;5.07;;;4.57;;
42724;SDS011;28369;44.046;23.014;2023-05-01T07:39:11;9.48;;;5.28;;
42724;SDS011;28369;44.046;23.014;2023-05-01T07:41:38;6.90;;;4.90;;
42724;SDS011;28369;44.046;23.014;2023-05-01T07:44:04;6.43;;;4.95;;
42724;SDS011;28369;44.046;23.014;2023-05-01T07:46:29;9.45;;;4.53;;
42724;SDS011;28369;44.046;23.014;2023-05-01T07:48:55;8.43;;;4.68;;
42724;SDS011;28369;44.046;23.014;2023-05-01T07:51:20;8.75;;;5.25;;
42724;SDS011;28369;44.046;23.014;2023-05-01T07:53:46;4.93;;;3.92;;
42724;SDS011;28369;44.046;23.014;2023-05-01T07:56:12;6.03;;;4.25;;
42724;SDS011;28369;44.046;23.014;2023-05-01T07:58:38;5.57;;;3.55;;
42724;SDS011;28369;44.046;23.014;2023-05-01T08:01:05;7.72;;;3.65;;
42724;SDS011;28369;44.046;23.014;2023-05-01T08:03:31;3.67;;;3.20;;
42724;SDS011;28369;44.046;23.014;2023-05-01T08:05:56;5.70;;;3.63;;
42724;SDS011;28369;44.046;23.014;2023-05-01T08:08:22;5.28;;;3.40;;
42724;SDS011;28369;44.046;23.014;2023-05-01T08:10:49;3.75;;;3.20;;
42724;SDS011;28369;44.046;23.014;2023-05-01T08:13:15;4.57;;;3.28;;
42724;SDS011;28369;44.046;23.014;2023-05-01T08:15:41;7.10;;;3.50;;
42724;SDS011;28369;44.046;23.014;2023-05-01T08:18:10;4.90;;;3.15;;
42724;SDS011;28369;44.046;23.014;2023-05-01T08:20:36;4.28;;;3.67;;
42724;SDS011;28369;44.046;23.014;2023-05-01T08:23:01;4.70;;;3.30;;
42724;SDS011;28369;44.046;23.014;2023-05-01T08:25:27;13.32;;;3.85;;
42724;SDS011;28369;44.046;23.014;2023-05-01T08:27:53;3.45;;;3.00;;
42724;SDS011;28369;44.046;23.014;2023-05-01T08:30:19;8.07;;;3.45;;
42724;SDS011;28369;44.046;23.014;2023-05-01T08:32:44;5.82;;;3.47;;
42724;SDS011;28369;44.046;23.014;2023-05-01T08:35:10;6.55;;;3.55;;
42724;SDS011;28369;44.046;23.014;2023-05-01T08:37:35;5.10;;;3.67;;
42724;SDS011;28369;44.046;23.014;2023-05-01T08:40:01;3.95;;;3.45;;
42724;SDS011;28369;44.046;23.014;2023-05-01T08:42:33;5.72;;;3.75;;
42724;SDS011;28369;44.046;23.014;2023-05-01T08:45:04;7.35;;;3.08;;
42724;SDS011;28369;44.046;23.014;2023-05-01T08:47:31;7.47;;;3.70;;
42724;SDS011;28369;44.046;23.014;2023-05-01T08:50:01;3.83;;;3.10;;
42724;SDS011;28369;44.046;23.014;2023-05-01T08:52:28;6.75;;;2.88;;
42724;SDS011;28369;44.046;23.014;2023-05-01T08:54:55;5.13;;;3.58;;
42724;SDS011;28369;44.046;23.014;2023-05-01T08:57:22;5.82;;;3.25;;
42724;SDS011;28369;44.046;23.014;2023-05-01T08:59:49;6.18;;;3.10;;
42724;SDS011;28369;44.046;23.014;2023-05-01T09:02:17;6.32;;;3.03;;
42724;SDS011;28369;44.046;23.014;2023-05-01T09:04:43;4.00;;;3.25;;
42724;SDS011;28369;44.046;23.014;2023-05-01T09:07:10;3.47;;;2.58;;
42724;SDS011;28369;44.046;23.014;2023-05-01T09:09:36;3.60;;;2.83;;
42724;SDS011;28369;44.046;23.014;2023-05-01T09:12:24;7.43;;;3.13;;
42724;SDS011;28369;44.046;23.014;2023-05-01T09:14:53;3.53;;;2.90;;
42724;SDS011;28369;44.046;23.014;2023-05-01T09:17:20;5.60;;;3.50;;
42724;SDS011;28369;44.046;23.014;2023-05-01T09:19:47;6.07;;;2.90;;
42724;SDS011;28369;44.046;23.014;2023-05-01T09:22:14;5.80;;;2.67;;
42724;SDS011;28369;44.046;23.014;2023-05-01T09:24:42;7.13;;;2.80;;
42724;SDS011;28369;44.046;23.014;2023-05-01T09:27:08;4.53;;;3.20;;
42724;SDS011;28369;44.046;23.014;2023-05-01T09:29:44;6.43;;;3.20;;
42724;SDS011;28369;44.046;23.014;2023-05-01T09:32:11;4.82;;;3.15;;
42724;SDS011;28369;44.046;23.014;2023-05-01T09:34:49;11.40;;;3.60;;
42724;SDS011;28369;44.046;23.014;2023-05-01T09:42:33;9.65;;;3.20;;
42724;SDS011;28369;44.046;23.014;2023-05-01T09:45:01;13.00;;;3.20;;
42724;SDS011;28369;44.046;23.014;2023-05-01T09:47:28;10.73;;;3.20;;
42724;SDS011;28369;44.046;23.014;2023-05-01T09:49:57;6.22;;;2.80;;
42724;SDS011;28369;44.046;23.014;2023-05-01T09:52:32;4.20;;;2.50;;
42724;SDS011;28369;44.046;23.014;2023-05-01T09:55:14;4.70;;;2.75;;
42724;SDS011;28369;44.046;23.014;2023-05-01T09:57:41;4.30;;;3.00;;
42724;SDS011;28369;44.046;23.014;2023-05-01T10:00:11;4.72;;;2.90;;
42724;SDS011;28369;44.046;23.014;2023-05-01T10:02:42;6.78;;;2.80;;
42724;SDS011;28369;44.046;23.014;2023-05-01T10:05:09;5.53;;;2.72;;
42724;SDS011;28369;44.046;23.014;2023-05-01T10:07:36;4.38;;;2.90;;
42724;SDS011;28369;44.046;23.014;2023-05-01T10:10:17;7.38;;;2.80;;
42724;SDS011;28369;44.046;23.014;2023-05-01T10:12:44;7.07;;;2.70;;
42724;SDS011;28369;44.046;23.014;2023-05-01T10:15:10;7.57;;;2.53;;
42724;SDS011;28369;44.046;23.014;2023-05-01T10:17:37;9.15;;;3.22;;
42724;SDS011;28369;44.046;23.014;2023-05-01T10:20:05;3.25;;;2.42;;
42724;SDS011;28369;44.046;23.014;2023-05-01T10:22:32;9.13;;;2.88;;
42724;SDS011;28369;44.046;23.014;2023-05-01T10:24:58;4.25;;;2.55;;
42724;SDS011;28369;44.046;23.014;2023-05-01T10:27:24;4.20;;;2.33;;
42724;SDS011;28369;44.046;23.014;2023-05-01T10:29:53;4.68;;;2.30;;
42724;SDS011;28369;44.046;23.014;2023-05-01T10:32:19;2.47;;;2.20;;
42724;SDS011;28369;44.046;23.014;2023-05-01T10:34:54;4.25;;;2.10;;
42724;SDS011;28369;44.046;23.014;2023-05-01T10:37:42;5.60;;;2.25;;
42724;SDS011;28369;44.046;23.014;2023-05-01T10:43:18;4.70;;;2.30;;
42724;SDS011;28369;44.046;23.014;2023-05-01T10:45:53;4.63;;;2.35;;
42724;SDS011;28369;44.046;23.014;2023-05-01T10:53:49;9.02;;;3.10;;
42724;SDS011;28369;44.046;23.014;2023-05-01T10:59:02;3.08;;;2.10;;
42724;SDS011;28369;44.046;23.014;2023-05-01T11:01:35;6.90;;;2.42;;
42724;SDS011;28369;44.046;23.014;2023-05-01T11:04:02;6.03;;;2.30;;
42724;SDS011;28369;44.046;23.014;2023-05-01T11:09:39;3.35;;;2.15;;
42724;SDS011;28369;44.046;23.014;2023-05-01T11:12:05;2.53;;;1.77;;
42724;SDS011;28369;44.046;23.014;2023-05-01T11:20:07;6.10;;;2.17;;
42724;SDS011;28369;44.046;23.014;2023-05-01T11:22:33;5.38;;;2.03;;
42724;SDS011;28369;44.046;23.014;2023-05-01T11:25:01;4.70;;;1.77;;
42724;SDS011;28369;44.046;23.014;2023-05-01T11:27:30;5.53;;;1.80;;
42724;SDS011;28369;44.046;23.014;2023-05-01T11:29:57;4.80;;;2.22;;
42724;SDS011;28369;44.046;23.014;2023-05-01T11:32:26;4.53;;;2.03;;
42724;SDS011;28369;44.046;23.014;2023-05-01T11:34:54;4.38;;;2.15;;
42724;SDS011;28369;44.046;23.014;2023-05-01T11:37:37;4.65;;;1.90;;
42724;SDS011;28369;44.046;23.014;2023-05-01T11:40:17;2.25;;;1.90;;
42724;SDS011;28369;44.046;23.014;2023-05-01T11:42:50;2.92;;;1.80;;
42724;SDS011;28369;44.046;23.014;2023-05-01T11:45:24;4.05;;;1.67;;
42724;SDS011;28369;44.046;23.014;2023-05-01T11:47:50;4.25;;;2.25;;
42724;SDS011;28369;44.046;23.014;2023-05-01T11:50:15;2.67;;;2.10;;
42724;SDS011;28369;44.046;23.014;2023-05-01T11:55:07;4.05;;;2.00;;
42724;SDS011;28369;44.046;23.014;2023-05-01T11:57:43;2.83;;;1.70;;
42724;SDS011;28369;44.046;23.014;2023-05-01T12:00:30;3.90;;;1.70;;
42724;SDS011;28369;44.046;23.014;2023-05-01T12:03:10;5.95;;;1.85;;
42724;SDS011;28369;44.046;23.014;2023-05-01T12:05:38;1.63;;;1.52;;
42724;SDS011;28369;44.046;23.014;2023-05-01T12:10:45;2.40;;;1.50;;
42724;SDS011;28369;44.046;23.014;2023-05-01T12:13:14;6.88;;;1.88;;
42724;SDS011;28369;44.046;23.014;2023-05-01T12:15:41;3.40;;;1.80;;
42724;SDS011;28369;44.046;23.014;2023-05-01T12:18:09;3.33;;;1.70;;
42724;SDS011;28369;44.046;23.014;2023-05-01T12:20:37;2.13;;;1.65;;
42724;SDS011;28369;44.046;23.014;2023-05-01T12:23:04;2.38;;;1.52;;
42724;SDS011;28369;44.046;23.014;2023-05-01T12:25:32;2.00;;;1.63;;
42724;SDS011;28369;44.046;23.014;2023-05-01T12:28:02;4.15;;;1.98;;
42724;SDS011;28369;44.046;23.014;2023-05-01T12:30:39;6.93;;;2.05;;
42724;SDS011;28369;44.046;23.014;2023-05-01T12:35:39;9.00;;;2.63;;
42724;SDS011;28369;44.046;23.014;2023-05-01T12:38:23;5.60;;;2.08;;
42724;SDS011;28369;44.046;23.014;2023-05-01T12:43:15;4.43;;;1.75;;
42724;SDS011;28369;44.046;23.014;2023-05-01T12:45:41;2.60;;;1.50;;
42724;SDS011;28369;44.046;23.014;2023-05-01T12:48:13;5.95;;;2.10;;
42724;SDS011;28369;44.046;23.014;2023-05-01T12:50:39;2.17;;;1.63;;
42724;SDS011;28369;44.046;23.014;2023-05-01T12:53:06;2.58;;;1.75;;
42724;SDS011;28369;44.046;23.014;2023-05-01T12:55:46;6.38;;;1.60;;
42724;SDS011;28369;44.046;23.014;2023-05-01T12:58:13;4.32;;;1.83;;
42724;SDS011;28369;44.046;23.014;2023-05-01T13:03:09;5.30;;;2.15;;
42724;SDS011;28369;44.046;23.014;2023-05-01T13:05:34;9.27;;;4.57;;
42724;SDS011;28369;44.046;23.014;2023-05-01T13:08:00;5.82;;;2.30;;
42724;SDS011;28369;44.046;23.014;2023-05-01T13:10:29;5.72;;;1.77;;
42724;SDS011;28369;44.046;23.014;2023-05-01T13:12:55;5.78;;;1.90;;
42724;SDS011;28369;44.046;23.014;2023-05-01T13:15:21;3.47;;;2.00;;
42724;SDS011;28369;44.046;23.014;2023-05-01T13:17:47;2.63;;;1.63;;
42724;SDS011;28369;44.046;23.014;2023-05-01T13:20:12;6.65;;;1.80;;
42724;SDS011;28369;44.046;23.014;2023-05-01T13:22:39;2.00;;;1.55;;
42724;SDS011;28369;44.046;23.014;2023-05-01T13:25:23;4.07;;;1.80;;
42724;SDS011;28369;44.046;23.014;2023-05-01T13:27:49;4.13;;;2.00;;
42724;SDS011;28369;44.046;23.014;2023-05-01T13:30:20;3.17;;;1.98;;
42724;SDS011;28369;44.046;23.014;2023-05-01T13:32:55;5.57;;;2.03;;
42724;SDS011;28369;44.046;23.014;2023-05-01T13:35:24;7.75;;;1.80;;
42724;SDS011;28369;44.046;23.014;2023-05-01T13:37:51;5.43;;;1.90;;
42724;SDS011;28369;44.046;23.014;2023-05-01T13:40:17;4.32;;;2.00;;
42724;SDS011;28369;44.046;23.014;2023-05-01T13:42:43;4.65;;;1.48;;
42724;SDS011;28369;44.046;23.014;2023-05-01T13:45:10;3.17;;;1.80;;
42724;SDS011;28369;44.046;23.014;2023-05-01T13:47:40;5.25;;;1.90;;
42724;SDS011;28369;44.046;23.014;2023-05-01T13:50:09;3.13;;;1.80;;
42724;SDS011;28369;44.046;23.014;2023-05-01T13:52:41;4.70;;;1.80;;
42724;SDS011;28369;44.046;23.014;2023-05-01T13:57:37;4.53;;;1.58;;
42724;SDS011;28369;44.046;23.014;2023-05-01T14:00:06;3.45;;;1.92;;
42724;SDS011;28369;44.046;23.014;2023-05-01T14:02:35;4.82;;;1.75;;
42724;SDS011;28369;44.046;23.014;2023-05-01T14:05:06;4.82;;;1.63;;
42724;SDS011;28369;44.046;23.014;2023-05-01T14:07:38;5.65;;;1.83;;
42724;SDS011;28369;44.046;23.014;2023-05-01T14:10:25;5.80;;;1.70;;
42724;SDS011;28369;44.046;23.014;2023-05-01T14:13:00;7.10;;;1.80;;
42724;SDS011;28369;44.046;23.014;2023-05-01T14:15:29;1.90;;;1.50;;
42724;SDS011;28369;44.046;23.014;2023-05-01T14:17:57;3.53;;;1.80;;
42724;SDS011;28369;44.046;23.014;2023-05-01T14:20:24;3.38;;;1.80;;
42724;SDS011;28369;44.046;23.014;2023-05-01T14:22:50;2.45;;;1.77;;
42724;SDS011;28369;44.046;23.014;2023-05-01T14:27:49;3.50;;;1.85;;
42724;SDS011;28369;44.046;23.014;2023-05-01T14:30:28;2.78;;;1.45;;
42724;SDS011;28369;44.046;23.014;2023-05-01T14:32:57;3.28;;;1.45;;
42724;SDS011;28369;44.046;23.014;2023-05-01T14:35:25;2.53;;;1.65;;
42724;SDS011;28369;44.046;23.014;2023-05-01T14:37:51;3.50;;;1.50;;
42724;SDS011;28369;44.046;23.014;2023-05-01T14:40:17;3.15;;;1.70;;
42724;SDS011;28369;44.046;23.014;2023-05-01T14:42:46;9.98;;;1.85;;
42724;SDS011;28369;44.046;23.014;2023-05-01T14:45:12;4.70;;;2.08;;
42724;SDS011;28369;44.046;23.014;2023-05-01T14:47:45;6.47;;;1.88;;
42724;SDS011;28369;44.046;23.014;2023-05-01T14:50:21;3.00;;;1.63;;
42724;SDS011;28369;44.046;23.014;2023-05-01T14:52:55;2.53;;;1.90;;
42724;SDS011;28369;44.046;23.014;2023-05-01T14:55:26;4.57;;;1.83;;
42724;SDS011;28369;44.046;23.014;2023-05-01T14:57:53;9.20;;;2.20;;
42724;SDS011;28369;44.046;23.014;2023-05-01T15:00:21;7.18;;;1.60;;
42724;SDS011;28369;44.046;23.014;2023-05-01T15:02:47;7.65;;;1.83;;
42724;SDS011;28369;44.046;23.014;2023-05-01T15:05:13;5.65;;;2.05;;
42724;SDS011;28369;44.046;23.014;2023-05-01T15:07:38;6.95;;;1.90;;
42724;SDS011;28369;44.046;23.014;2023-05-01T15:10:05;4.20;;;1.77;;
42724;SDS011;28369;44.046;23.014;2023-05-01T15:12:30;9.48;;;1.92;;
42724;SDS011;28369;44.046;23.014;2023-05-01T15:14:56;6.25;;;2.00;;
42724;SDS011;28369;44.046;23.014;2023-05-01T15:17:21;5.70;;;1.90;;
42724;SDS011;28369;44.046;23.014;2023-05-01T15:19:47;5.05;;;2.13;;
42724;SDS011;28369;44.046;23.014;2023-05-01T15:22:12;2.90;;;2.00;;
42724;SDS011;28369;44.046;23.014;2023-05-01T15:24:38;7.72;;;2.40;;
42724;SDS011;28369;44.046;23.014;2023-05-01T15:27:03;5.28;;;1.75;;
42724;SDS011;28369;44.046;23.014;2023-05-01T15:29:30;3.95;;;1.98;;
42724;SDS011;28369;44.046;23.014;2023-05-01T15:31:55;1.98;;;1.60;;
42724;SDS011;28369;44.046;23.014;2023-05-01T15:34:21;5.05;;;1.85;;
42724;SDS011;28369;44.046;23.014;2023-05-01T15:36:48;4.03;;;1.90;;